Terminal Aerodrome Forecast
Issued by NWS Jacksonville, FL

Home | Current Version | Previous Version | Text Only | Print | Product List | Glossary On
Versions: 1 2 3 4 5 6 7 8 9 10 11 12 13 14 15 16 17 18 19 20 21 22 23
000
FTUS42 KJAX 301908 AAA
TAFSSI
TAF AMD
KSSI 301908Z 3019/0118 23014G23KT P6SM VCTS SCT040CB BKN050
      TEMPO 3020/3022 VRB25G40KT 3SM TSRA BKN035CB
     FM302200 24012KT P6SM VCTS BKN040CB
     FM010200 21006KT P6SM SCT040 BKN100=

USA.gov is the U.S. government's official web portal to all federal, state and local government web resources and services.